Time;durP1;ratioP1;P1;durP2;ratioP2;P2;SDS_P1;SDS_P2;PMS_P1;PMS_P2;Temp;Humidity;BMP_temperature;BMP_pressure;BME280_temperature;BME280_humidity;BME280_pressure;Samples;Min_cycle;Max_cycle;Signal;HPM_P1;HPM_P2
2023/05/27 00:02:25;;;;;;;22.52;6.47;;;10.10;78.10;;;;;;5021949;28;20472;-77
2023/05/27 00:04:51;;;;;;;16.10;5.65;;;9.90;80.70;;;;;;5021683;28;20450;-77
2023/05/27 00:07:16;;;;;;;22.52;5.90;;;9.90;83.90;;;;;;4990122;28;20113;-76
2023/05/27 00:09:42;;;;;;;18.63;5.18;;;10.00;81.00;;;;;;5022976;28;20037;-76
2023/05/27 00:12:07;;;;;;;17.30;5.00;;;9.90;81.40;;;;;;5005480;28;20057;-77
2023/05/27 00:14:33;;;;;;;18.05;4.50;;;9.90;81.30;;;;;;5008376;28;20030;-77
2023/05/27 00:17:01;;;;;;;25.08;5.60;;;9.90;84.10;;;;;;5024800;28;20042;-77
2023/05/27 00:19:29;;;;;;;19.80;6.05;;;9.90;81.10;;;;;;5024141;28;20129;-77
2023/05/27 00:21:55;;;;;;;20.83;5.65;;;9.70;82.20;;;;;;5025769;28;20460;-77
2023/05/27 00:24:21;;;;;;;20.55;5.63;;;9.60;83.20;;;;;;5027657;28;20416;-77
2023/05/27 00:26:46;;;;;;;19.25;5.55;;;9.50;82.70;;;;;;5008728;28;20033;-76
2023/05/27 00:29:12;;;;;;;18.92;5.05;;;9.60;84.10;;;;;;5002159;28;20033;-77
2023/05/27 00:31:37;;;;;;;16.92;4.75;;;9.60;86.70;;;;;;5025104;28;20033;-77
2023/05/27 00:34:03;;;;;;;20.40;6.45;;;9.60;85.40;;;;;;5008101;28;20026;-76
2023/05/27 00:36:29;;;;;;;23.48;5.28;;;9.40;87.40;;;;;;5024610;28;20052;-77
2023/05/27 00:38:55;;;;;;;20.48;5.53;;;9.50;91.10;;;;;;5019992;28;20370;-77
2023/05/27 00:41:20;;;;;;;11.50;4.82;;;9.30;84.90;;;;;;5007041;28;20041;-77
2023/05/27 00:43:46;;;;;;;22.05;6.00;;;9.30;88.80;;;;;;5020283;28;20492;-77
2023/05/27 00:46:12;;;;;;;15.75;6.13;;;9.30;87.60;;;;;;5023303;28;20044;-76
2023/05/27 00:48:37;;;;;;;21.80;6.80;;;9.30;90.00;;;;;;5023545;28;20025;-76
2023/05/27 00:51:03;;;;;;;19.20;5.65;;;9.10;90.60;;;;;;5024321;28;20034;-77
2023/05/27 00:53:28;;;;;;;21.48;5.63;;;9.20;89.20;;;;;;5025224;28;20029;-76
2023/05/27 00:55:54;;;;;;;20.88;5.53;;;9.20;90.60;;;;;;4991464;28;20422;-77
2023/05/27 00:58:21;;;;;;;23.50;6.18;;;9.20;92.70;;;;;;5020412;28;20033;-77
2023/05/27 01:00:47;;;;;;;22.38;6.72;;;9.10;93.30;;;;;;5007874;28;20088;-77
2023/05/27 01:03:13;;;;;;;22.88;5.22;;;9.20;89.70;;;;;;5024767;28;20516;-77
2023/05/27 01:05:38;;;;;;;21.88;5.15;;;9.20;91.60;;;;;;5003969;28;20030;-76
2023/05/27 01:08:20;;;;;;;20.02;6.38;;;9.30;89.40;;;;;;5025258;28;20030;-76
2023/05/27 01:10:49;;;;;;;19.48;4.90;;;9.00;90.60;;;;;;5025267;28;20040;-77
2023/05/27 01:13:43;;;;;;;17.90;6.03;;;8.90;91.50;;;;;;5025051;28;20118;-77
2023/05/27 01:16:13;;;;;;;20.33;5.78;;;8.90;91.10;;;;;;4994565;28;20044;-77
2023/05/27 01:18:44;;;;;;;17.90;5.38;;;8.80;90.80;;;;;;5021908;28;20610;-77
2023/05/27 01:21:12;;;;;;;21.85;5.78;;;8.60;90.90;;;;;;5005588;28;20041;-77
2023/05/27 01:23:38;;;;;;;18.38;5.38;;;8.60;92.30;;;;;;5007832;28;20061;-76
2023/05/27 01:26:07;;;;;;;24.00;5.70;;;8.70;93.40;;;;;;4984323;28;20168;-77
2023/05/27 01:28:32;;;;;;;22.38;6.03;;;8.80;93.00;;;;;;5008371;28;20773;-76
2023/05/27 01:31:11;;;;;;;20.70;5.80;;;8.70;93.90;;;;;;5004725;28;20037;-76
2023/05/27 01:33:36;;;;;;;18.20;5.22;;;8.50;94.30;;;;;;5007409;28;20477;-76
2023/05/27 01:36:06;;;;;;;19.95;5.90;;;8.40;92.60;;;;;;5019169;28;20087;-77
2023/05/27 01:38:31;;;;;;;18.52;6.35;;;8.30;93.30;;;;;;5002326;28;20080;-76
2023/05/27 01:40:57;;;;;;;21.20;6.00;;;8.20;95.30;;;;;;5023328;28;20053;-76
2023/05/27 01:43:23;;;;;;;22.38;6.05;;;8.30;95.90;;;;;;5024623;28;20033;-77
2023/05/27 01:45:49;;;;;;;24.27;7.35;;;8.30;96.00;;;;;;5024821;28;20044;-76
2023/05/27 01:48:15;;;;;;;27.55;6.47;;;8.30;94.80;;;;;;5006642;28;20661;-76
2023/05/27 01:50:40;;;;;;;23.63;6.18;;;8.20;94.90;;;;;;5007513;28;20040;-76
2023/05/27 01:53:06;;;;;;;20.38;6.75;;;8.10;94.40;;;;;;5024070;28;20038;-77
2023/05/27 01:55:31;;;;;;;22.40;5.53;;;8.10;97.80;;;;;;5003310;28;20037;-77
2023/05/27 01:57:57;;;;;;;20.42;6.85;;;8.20;99.50;;;;;;4990400;28;20032;-77
2023/05/27 02:00:24;;;;;;;22.42;6.90;;;8.10;97.00;;;;;;5022078;28;20049;-77
2023/05/27 02:02:49;;;;;;;20.98;7.68;;;8.10;98.60;;;;;;5022238;28;20496;-77
2023/05/27 02:05:15;;;;;;;29.40;7.45;;;8.00;96.50;;;;;;5023533;28;20038;-76
2023/05/27 02:07:41;;;;;;;25.63;7.20;;;8.00;97.40;;;;;;5007632;28;20548;-80
2023/05/27 02:10:07;;;;;;;22.13;7.30;;;8.00;97.30;;;;;;5021854;28;20041;-80
2023/05/27 02:12:32;;;;;;;22.25;7.50;;;7.90;97.80;;;;;;5022565;28;20109;-76
2023/05/27 02:14:58;;;;;;;26.60;7.57;;;7.80;97.70;;;;;;5022939;28;20113;-77
2023/05/27 02:17:24;;;;;;;28.15;8.52;;;7.70;99.90;;;;;;5023079;28;20026;-78
2023/05/27 02:19:50;;;;;;;22.08;7.43;;;7.70;98.80;;;;;;5004113;28;20044;-76
2023/05/27 02:22:17;;;;;;;22.15;8.18;;;7.70;99.90;;;;;;5023140;28;20072;-76
2023/05/27 02:24:43;;;;;;;28.83;7.97;;;7.80;99.90;;;;;;5021654;28;20135;-76
2023/05/27 02:27:08;;;;;;;23.98;7.05;;;7.70;99.90;;;;;;5023379;28;20036;-76
2023/05/27 02:29:34;;;;;;;27.27;10.32;;;7.90;99.90;;;;;;5006150;28;20489;-75
2023/05/27 02:31:59;;;;;;;23.95;8.05;;;7.60;99.40;;;;;;5023340;28;20037;-79
2023/05/27 02:34:25;;;;;;;27.17;8.52;;;7.60;99.90;;;;;;5022788;28;20045;-79
2023/05/27 02:36:50;;;;;;;25.23;8.02;;;7.60;99.90;;;;;;5023159;28;20037;-79
2023/05/27 02:39:16;;;;;;;21.35;7.05;;;7.50;99.90;;;;;;5022692;28;20034;-80
2023/05/27 02:41:42;;;;;;;22.58;7.43;;;7.60;99.90;;;;;;5004509;28;20087;-79
2023/05/27 02:44:07;;;;;;;23.63;7.22;;;7.60;99.90;;;;;;5022332;28;20386;-79
2023/05/27 02:46:33;;;;;;;19.98;7.63;;;7.60;99.90;;;;;;4990066;28;20659;-79
2023/05/27 02:48:58;;;;;;;20.15;8.57;;;7.40;99.90;;;;;;5020304;28;20033;-79
2023/05/27 02:51:24;;;;;;;17.08;7.55;;;7.40;99.90;;;;;;5020168;28;20422;-80
2023/05/27 02:53:50;;;;;;;22.48;8.27;;;7.40;99.90;;;;;;5005679;28;20033;-80
2023/05/27 02:56:17;;;;;;;28.58;8.40;;;7.30;99.90;;;;;;5019693;28;20489;-80
2023/05/27 02:58:42;;;;;;;24.20;8.02;;;7.30;99.90;;;;;;5019619;28;20404;-80
2023/05/27 03:01:08;;;;;;;22.25;6.80;;;7.30;99.90;;;;;;5022451;28;20112;-80
2023/05/27 03:03:33;;;;;;;32.35;8.02;;;7.30;99.90;;;;;;5006211;28;20112;-80
2023/05/27 03:05:59;;;;;;;31.33;10.10;;;7.20;99.90;;;;;;5005577;28;20034;-80
2023/05/27 03:08:25;;;;;;;21.15;6.95;;;7.20;99.90;;;;;;5022423;28;20030;-79
2023/05/27 03:10:50;;;;;;;22.33;8.23;;;7.10;99.90;;;;;;5001134;28;20057;-79
2023/05/27 03:13:16;;;;;;;30.27;8.15;;;7.10;99.90;;;;;;5023800;28;20084;-80
2023/05/27 03:15:41;;;;;;;26.90;8.52;;;7.00;99.90;;;;;;5018391;28;20034;-80
2023/05/27 03:18:07;;;;;;;23.88;7.30;;;7.00;99.90;;;;;;5021136;28;20049;-79
2023/05/27 03:20:32;;;;;;;23.63;7.53;;;6.90;99.90;;;;;;5022378;28;20033;-79
2023/05/27 03:22:58;;;;;;;21.20;7.30;;;6.90;99.90;;;;;;5006268;28;20038;-80
2023/05/27 03:25:23;;;;;;;24.42;8.18;;;7.00;99.90;;;;;;5023106;28;20030;-80
2023/05/27 03:27:49;;;;;;;23.58;6.95;;;6.80;99.90;;;;;;5022143;28;20033;-79
2023/05/27 03:30:15;;;;;;;20.20;7.43;;;6.80;99.90;;;;;;5022261;28;20111;-80
2023/05/27 03:32:40;;;;;;;25.27;8.00;;;6.80;99.90;;;;;;5021523;28;20037;-80
2023/05/27 03:35:06;;;;;;;24.45;7.85;;;6.80;99.90;;;;;;4999627;28;20481;-80
2023/05/27 03:37:32;;;;;;;26.60;8.23;;;6.80;99.90;;;;;;5021767;28;20475;-79
2023/05/27 03:39:57;;;;;;;27.15;7.95;;;6.80;99.90;;;;;;5004576;28;20116;-80
2023/05/27 03:42:23;;;;;;;28.48;7.97;;;6.60;99.90;;;;;;5020494;28;20033;-80
2023/05/27 03:44:48;;;;;;;24.27;7.57;;;6.70;99.90;;;;;;5022706;28;20040;-80
2023/05/27 03:47:17;;;;;;;21.10;8.18;;;6.70;99.90;;;;;;5018172;28;20056;-79
2023/05/27 03:49:43;;;;;;;23.88;8.15;;;6.70;99.90;;;;;;5025817;28;20033;-80
2023/05/27 03:52:08;;;;;;;26.70;8.50;;;6.80;99.90;;;;;;5025774;28;20041;-79
2023/05/27 03:54:34;;;;;;;18.08;7.20;;;6.90;99.90;;;;;;5025711;28;20505;-79
2023/05/27 03:57:01;;;;;;;21.48;8.07;;;6.80;99.90;;;;;;5024960;28;20041;-79
2023/05/27 03:59:26;;;;;;;24.63;8.02;;;6.80;99.90;;;;;;5007658;28;20030;-80
2023/05/27 04:01:52;;;;;;;22.75;8.23;;;7.00;99.90;;;;;;5026507;28;20060;-79
2023/05/27 04:04:18;;;;;;;22.73;8.02;;;7.00;99.90;;;;;;5026111;28;20061;-80
2023/05/27 04:06:43;;;;;;;21.48;9.05;;;7.00;99.90;;;;;;5021090;28;20061;-80
2023/05/27 04:09:09;;;;;;;32.53;8.80;;;7.10;99.90;;;;;;5009274;28;20072;-79
2023/05/27 04:11:34;;;;;;;21.95;8.27;;;7.10;99.90;;;;;;5025941;28;20030;-76
2023/05/27 04:14:00;;;;;;;26.73;8.60;;;7.10;99.90;;;;;;5025941;28;20212;-77
2023/05/27 04:16:25;;;;;;;25.20;8.30;;;7.30;99.90;;;;;;5025373;28;20041;-78
2023/05/27 04:18:51;;;;;;;23.50;8.73;;;7.30;99.90;;;;;;5023247;28;20032;-77
2023/05/27 04:21:20;;;;;;;26.17;9.32;;;7.40;99.90;;;;;;5025661;28;20036;-76
2023/05/27 04:23:45;;;;;;;20.90;8.30;;;7.50;99.90;;;;;;5024118;28;20032;-76
2023/05/27 04:26:12;;;;;;;24.58;8.23;;;7.50;99.90;;;;;;5007642;28;20460;-76
2023/05/27 04:28:39;;;;;;;25.60;8.73;;;7.60;99.90;;;;;;5004836;28;20076;-76
2023/05/27 04:31:05;;;;;;;25.52;8.35;;;7.70;99.90;;;;;;5026128;28;20523;-76
2023/05/27 04:33:30;;;;;;;30.38;9.27;;;7.90;99.90;;;;;;5009317;28;20029;-76
2023/05/27 04:35:56;;;;;;;24.20;8.40;;;8.00;99.90;;;;;;5025030;28;20029;-77
2023/05/27 04:38:22;;;;;;;26.55;8.85;;;8.10;99.90;;;;;;5008235;28;20026;-77
2023/05/27 04:40:52;;;;;;;27.92;8.45;;;8.10;99.90;;;;;;5025053;28;20048;-77
2023/05/27 04:43:20;;;;;;;26.63;8.18;;;8.20;99.90;;;;;;5021422;28;20080;-77
2023/05/27 04:45:46;;;;;;;23.02;9.02;;;8.30;99.90;;;;;;5008736;28;20124;-76
2023/05/27 04:48:12;;;;;;;24.55;8.93;;;8.50;99.90;;;;;;5023973;28;20137;-76
2023/05/27 04:50:39;;;;;;;27.58;8.80;;;8.60;99.90;;;;;;5021863;28;20026;-76
2023/05/27 04:53:04;;;;;;;28.15;9.20;;;8.70;99.90;;;;;;5025218;28;20041;-76
2023/05/27 04:55:30;;;;;;;24.17;8.45;;;8.80;99.90;;;;;;5024711;28;20047;-77
2023/05/27 04:57:56;;;;;;;23.25;8.93;;;9.00;99.90;;;;;;5008094;28;20037;-76
2023/05/27 05:00:36;;;;;;;23.25;10.07;;;9.10;99.90;;;;;;5004358;28;20041;-77
2023/05/27 05:03:02;;;;;;;19.35;7.40;;;9.30;99.90;;;;;;5005668;28;20128;-76
2023/05/27 05:05:28;;;;;;;24.90;7.60;;;9.40;99.90;;;;;;5024715;28;20501;-76
2023/05/27 05:07:54;;;;;;;22.05;6.90;;;9.60;99.90;;;;;;5025116;28;20033;-77
2023/05/27 05:10:20;;;;;;;19.38;6.93;;;9.70;99.90;;;;;;5024687;28;20029;-76
2023/05/27 05:12:45;;;;;;;22.15;7.80;;;9.90;99.90;;;;;;5027049;28;20060;-76
2023/05/27 05:15:11;;;;;;;15.70;6.50;;;10.10;99.90;;;;;;5024247;28;20041;-77
2023/05/27 05:17:36;;;;;;;19.45;7.13;;;10.20;99.90;;;;;;5023614;28;20075;-76
2023/05/27 05:20:03;;;;;;;23.02;8.32;;;10.40;99.90;;;;;;5024163;28;20087;-76
2023/05/27 05:22:29;;;;;;;23.25;8.38;;;10.60;99.90;;;;;;5007770;28;20116;-76
2023/05/27 05:24:54;;;;;;;23.67;7.38;;;10.80;99.90;;;;;;5025079;28;20141;-77
2023/05/27 05:27:20;;;;;;;19.05;6.65;;;10.90;99.90;;;;;;5020933;28;20040;-76
2023/05/27 05:29:45;;;;;;;22.33;6.72;;;11.10;99.90;;;;;;5015699;28;20053;-77
2023/05/27 05:32:11;;;;;;;24.75;9.13;;;11.30;99.90;;;;;;4991070;28;20092;-76
2023/05/27 05:34:39;;;;;;;21.88;6.53;;;11.40;99.90;;;;;;5025561;28;20057;-75
2023/05/27 05:37:06;;;;;;;25.20;8.63;;;11.60;99.90;;;;;;5022448;28;20029;-75
2023/05/27 05:39:31;;;;;;;22.58;6.90;;;11.80;99.90;;;;;;5023794;28;20041;-76
2023/05/27 05:41:57;;;;;;;14.50;6.22;;;12.10;99.90;;;;;;5023952;28;20029;-76
2023/05/27 05:44:23;;;;;;;20.48;7.13;;;12.30;99.90;;;;;;5024864;28;20029;-76
2023/05/27 05:46:49;;;;;;;19.55;7.47;;;12.50;99.90;;;;;;5020464;28;20037;-75
2023/05/27 05:49:14;;;;;;;21.77;7.40;;;12.70;99.90;;;;;;5020683;28;20033;-75
2023/05/27 05:51:40;;;;;;;19.25;7.32;;;12.90;99.90;;;;;;5022333;28;20111;-76
2023/05/27 05:54:06;;;;;;;25.05;7.13;;;13.00;99.90;;;;;;5024584;28;20032;-76
2023/05/27 05:56:32;;;;;;;21.90;6.35;;;13.20;99.90;;;;;;5022073;28;20032;-76
2023/05/27 05:58:57;;;;;;;19.17;6.53;;;13.40;99.90;;;;;;5006041;28;20029;-77
2023/05/27 06:01:26;;;;;;;15.93;6.53;;;13.60;99.90;;;;;;5024528;28;20029;-75
2023/05/27 06:03:52;;;;;;;12.13;6.55;;;13.80;99.90;;;;;;5021167;28;20468;-76
2023/05/27 06:06:18;;;;;;;13.88;5.72;;;13.90;99.90;;;;;;5022962;28;20148;-76
2023/05/27 06:08:43;;;;;;;11.50;5.80;;;14.10;99.80;;;;;;5023890;28;20025;-76
2023/05/27 06:11:10;;;;;;;14.95;6.72;;;14.10;99.30;;;;;;5023501;28;20033;-75
2023/05/27 06:13:35;;;;;;;23.15;8.23;;;14.50;99.90;;;;;;5024592;28;20045;-76
2023/05/27 06:16:01;;;;;;;21.83;6.82;;;14.80;99.90;;;;;;5024880;28;20038;-75
2023/05/27 06:18:26;;;;;;;12.07;5.38;;;15.00;99.90;;;;;;4992193;28;20534;-75
2023/05/27 06:20:52;;;;;;;16.35;6.85;;;15.20;99.20;;;;;;4991245;28;20504;-76
2023/05/27 06:23:17;;;;;;;15.68;6.25;;;15.40;99.30;;;;;;5008223;28;20077;-75
2023/05/27 06:25:43;;;;;;;20.00;6.35;;;15.60;99.30;;;;;;5025969;28;20030;-77
2023/05/27 06:28:08;;;;;;;22.17;6.25;;;15.90;98.70;;;;;;5023984;28;20068;-76
2023/05/27 06:30:36;;;;;;;25.60;6.82;;;16.00;97.80;;;;;;5024436;28;20061;-75
2023/05/27 06:33:01;;;;;;;15.88;6.30;;;16.20;97.90;;;;;;5023834;28;20037;-75
2023/05/27 06:35:27;;;;;;;17.20;5.80;;;16.40;97.60;;;;;;5007610;28;20409;-76
2023/05/27 06:37:53;;;;;;;18.67;6.97;;;16.50;97.10;;;;;;5004313;28;20072;-76
2023/05/27 06:40:18;;;;;;;18.52;6.68;;;16.80;96.80;;;;;;5024423;28;20064;-76
2023/05/27 06:42:44;;;;;;;21.58;7.30;;;17.10;96.40;;;;;;5008235;28;20030;-76
2023/05/27 06:45:10;;;;;;;23.42;7.15;;;17.30;95.90;;;;;;5023921;28;20087;-76
2023/05/27 06:47:36;;;;;;;28.58;7.22;;;17.40;95.40;;;;;;5021547;28;20030;-76
2023/05/27 06:50:01;;;;;;;23.17;6.72;;;17.50;95.30;;;;;;5003689;28;20494;-76
2023/05/27 06:52:27;;;;;;;18.02;7.32;;;17.80;94.30;;;;;;5008101;28;20043;-76
2023/05/27 06:54:52;;;;;;;22.52;7.28;;;18.00;93.50;;;;;;5024541;28;20084;-76
2023/05/27 06:57:18;;;;;;;15.48;7.43;;;18.10;92.90;;;;;;5020947;28;20505;-75
2023/05/27 06:59:44;;;;;;;14.63;6.53;;;18.20;92.80;;;;;;5021279;28;20040;-76
2023/05/27 07:02:09;;;;;;;20.38;6.75;;;18.30;92.40;;;;;;5023582;28;20116;-75
2023/05/27 07:04:35;;;;;;;17.75;7.25;;;18.50;92.40;;;;;;5006281;28;20064;-76
2023/05/27 07:07:01;;;;;;;15.15;6.07;;;18.70;91.60;;;;;;5023174;28;20026;-76
2023/05/27 07:09:27;;;;;;;27.25;9.13;;;18.80;91.40;;;;;;5024024;28;20057;-76
2023/05/27 07:11:52;;;;;;;19.30;7.15;;;18.90;91.40;;;;;;5019413;28;20653;-76
2023/05/27 07:14:18;;;;;;;17.52;7.18;;;19.00;91.20;;;;;;5006713;28;20060;-76
2023/05/27 07:16:43;;;;;;;15.18;5.50;;;19.20;90.50;;;;;;5006497;28;20033;-76
2023/05/27 07:19:09;;;;;;;21.10;6.45;;;19.30;90.30;;;;;;5023742;28;20038;-75
2023/05/27 07:21:36;;;;;;;16.10;6.35;;;19.50;89.80;;;;;;5005694;28;20060;-76
2023/05/27 07:24:04;;;;;;;12.77;5.88;;;19.70;89.80;;;;;;4997678;28;20784;-75
2023/05/27 07:26:31;;;;;;;13.18;6.07;;;19.80;89.40;;;;;;5030215;28;20075;-76
2023/05/27 07:28:58;;;;;;;22.23;7.40;;;20.00;88.20;;;;;;5013679;28;20025;-76
2023/05/27 07:31:24;;;;;;;18.90;6.13;;;20.20;87.90;;;;;;5026464;28;20091;-76
2023/05/27 07:33:49;;;;;;;19.83;6.50;;;20.40;86.40;;;;;;5024943;28;20033;-76
2023/05/27 07:36:15;;;;;;;12.50;4.30;;;20.50;85.40;;;;;;5023881;28;20482;-76
2023/05/27 07:38:40;;;;;;;14.30;5.95;;;20.70;83.40;;;;;;5028050;28;20374;-76
2023/05/27 07:41:06;;;;;;;19.83;5.85;;;20.70;85.30;;;;;;5028393;28;20067;-76
2023/05/27 07:43:31;;;;;;;13.65;5.13;;;20.70;83.50;;;;;;5012257;28;20030;-76
2023/05/27 07:45:57;;;;;;;13.60;4.55;;;21.00;84.20;;;;;;4991505;28;20041;-76
2023/05/27 07:48:22;;;;;;;20.13;6.05;;;21.20;82.40;;;;;;5026948;28;20037;-76
2023/05/27 07:50:48;;;;;;;13.40;4.60;;;21.40;82.60;;;;;;5027040;28;20086;-76
2023/05/27 07:53:13;;;;;;;13.45;5.03;;;21.30;82.20;;;;;;5012072;28;20128;-76
2023/05/27 07:55:39;;;;;;;21.10;6.43;;;21.40;81.70;;;;;;5027134;28;20040;-76
2023/05/27 07:58:05;;;;;;;18.42;5.32;;;21.80;80.50;;;;;;5027446;28;20054;-76
2023/05/27 08:00:31;;;;;;;12.93;3.67;;;22.00;80.50;;;;;;5011506;28;20045;-76
2023/05/27 08:02:56;;;;;;;20.52;5.32;;;21.70;79.90;;;;;;5028927;28;20156;-76
2023/05/27 08:05:22;;;;;;;13.40;5.20;;;22.00;80.10;;;;;;5028705;28;20144;-76
2023/05/27 08:07:48;;;;;;;9.65;4.03;;;22.30;79.00;;;;;;5029783;28;20168;-76
2023/05/27 08:10:13;;;;;;;18.67;5.75;;;22.40;77.10;;;;;;5028293;28;20029;-76
2023/05/27 08:12:38;;;;;;;16.23;5.30;;;22.60;78.30;;;;;;5011909;28;20022;-75
2023/05/27 08:15:05;;;;;;;25.38;5.50;;;22.70;77.10;;;;;;5028388;28;20033;-76
2023/05/27 08:17:30;;;;;;;16.52;5.40;;;22.80;77.10;;;;;;5010010;28;20025;-76
2023/05/27 08:19:56;;;;;;;15.27;5.32;;;22.70;76.70;;;;;;4995769;28;20044;-77
2023/05/27 08:22:22;;;;;;;13.77;4.55;;;22.80;76.50;;;;;;5027134;28;20029;-78
2023/05/27 08:24:49;;;;;;;15.18;4.97;;;23.20;75.10;;;;;;5025312;28;20029;-77
2023/05/27 08:27:15;;;;;;;14.50;4.82;;;23.30;75.30;;;;;;5025496;28;20300;-77
2023/05/27 08:29:41;;;;;;;11.65;4.55;;;23.40;74.80;;;;;;5029490;28;20445;-77
2023/05/27 08:32:07;;;;;;;15.23;6.47;;;23.30;74.20;;;;;;5027670;28;20034;-77
2023/05/27 08:34:32;;;;;;;14.10;5.55;;;23.60;74.20;;;;;;5017492;28;20091;-77
2023/05/27 08:36:59;;;;;;;15.32;5.82;;;23.90;73.50;;;;;;5002588;28;20049;-78
2023/05/27 08:39:25;;;;;;;15.43;5.72;;;24.20;72.70;;;;;;5023901;28;20037;-78
2023/05/27 08:41:50;;;;;;;12.10;4.53;;;24.30;70.90;;;;;;5001317;28;20041;-78
2023/05/27 08:44:16;;;;;;;18.90;6.32;;;24.30;71.20;;;;;;5005458;28;20172;-77
2023/05/27 08:46:41;;;;;;;17.40;6.20;;;24.50;70.60;;;;;;5025603;28;20037;-78
2023/05/27 08:49:07;;;;;;;18.98;5.88;;;24.70;69.10;;;;;;5023886;28;20044;-77
2023/05/27 08:51:34;;;;;;;16.48;4.90;;;24.80;70.60;;;;;;5006397;28;20508;-78
2023/05/27 08:54:00;;;;;;;15.05;5.35;;;24.60;69.60;;;;;;5025241;28;20033;-78
2023/05/27 08:56:25;;;;;;;15.18;5.07;;;24.90;68.20;;;;;;5021225;28;20029;-78
2023/05/27 08:58:53;;;;;;;16.48;5.20;;;25.00;69.60;;;;;;5001685;28;20034;-78
2023/05/27 09:01:19;;;;;;;16.30;5.78;;;25.20;67.50;;;;;;5006184;28;20582;-78
2023/05/27 09:03:45;;;;;;;17.42;5.78;;;25.30;67.10;;;;;;5025318;28;20116;-78
2023/05/27 09:06:11;;;;;;;19.52;5.95;;;25.40;66.90;;;;;;5022072;28;20117;-78
2023/05/27 09:08:36;;;;;;;15.30;4.80;;;25.50;66.70;;;;;;5007122;28;20029;-78
2023/05/27 09:11:02;;;;;;;19.10;4.82;;;25.50;66.30;;;;;;5021980;28;20064;-78
2023/05/27 09:13:31;;;;;;;16.95;5.25;;;25.60;66.20;;;;;;5025453;28;20393;-76
2023/05/27 09:16:00;;;;;;;16.98;6.05;;;25.80;64.50;;;;;;5021525;28;20030;-78
2023/05/27 09:18:27;;;;;;;17.67;6.13;;;26.00;63.00;;;;;;5020233;28;20034;-78
2023/05/27 09:20:57;;;;;;;13.25;5.00;;;26.00;61.20;;;;;;5018197;28;20065;-77
2023/05/27 09:23:22;;;;;;;17.00;5.32;;;26.00;63.80;;;;;;5022990;28;20068;-78
2023/05/27 09:25:49;;;;;;;21.33;5.65;;;26.30;62.00;;;;;;5021682;28;20053;-78
2023/05/27 09:28:24;;;;;;;11.43;4.10;;;26.10;63.50;;;;;;5024469;28;21964;-78
2023/05/27 09:31:04;;;;;;;11.80;4.05;;;26.00;65.00;;;;;;5022762;28;20634;-78
2023/05/27 09:33:38;;;;;;;13.65;4.53;;;26.00;65.80;;;;;;4991307;28;20061;-78
2023/05/27 09:36:04;;;;;;;13.70;4.45;;;26.30;62.90;;;;;;5000927;28;20067;-78
2023/05/27 09:38:30;;;;;;;14.90;4.78;;;26.40;61.90;;;;;;5024546;28;20030;-78
2023/05/27 09:40:59;;;;;;;16.85;5.28;;;26.60;60.20;;;;;;5002663;28;20049;-78
2023/05/27 09:43:28;;;;;;;19.92;5.72;;;26.60;59.90;;;;;;5020517;28;20030;-79
2023/05/27 09:46:01;;;;;;;18.95;5.80;;;26.80;58.90;;;;;;5000096;28;20040;-79
2023/05/27 09:48:30;;;;;;;14.48;4.43;;;26.90;58.80;;;;;;5019637;28;20041;-77
2023/05/27 09:50:56;;;;;;;13.13;4.60;;;26.90;59.40;;;;;;5006943;28;20389;-79
2023/05/27 09:53:23;;;;;;;11.30;3.72;;;26.90;59.50;;;;;;5006164;28;20029;-79
2023/05/27 09:55:49;;;;;;;11.15;4.07;;;27.00;59.40;;;;;;5024019;28;20038;-77
2023/05/27 09:58:14;;;;;;;17.33;5.47;;;27.20;57.30;;;;;;5020238;28;20218;-79
2023/05/27 10:00:41;;;;;;;14.90;4.82;;;27.20;56.10;;;;;;5001960;28;20039;-78
2023/05/27 10:03:07;;;;;;;15.90;4.05;;;27.20;57.80;;;;;;5022696;28;20034;-78
2023/05/27 10:05:33;;;;;;;15.43;4.47;;;27.20;57.20;;;;;;5020115;28;20091;-80
2023/05/27 10:07:58;;;;;;;13.95;4.80;;;27.30;55.50;;;;;;5014454;28;20033;-79
2023/05/27 10:10:24;;;;;;;13.00;4.47;;;27.40;56.40;;;;;;5023619;28;20089;-78
2023/05/27 10:12:51;;;;;;;15.48;4.63;;;27.40;55.00;;;;;;5023129;28;20026;-78
2023/05/27 10:15:27;;;;;;;10.77;4.18;;;27.50;54.80;;;;;;5007027;28;20049;-79
2023/05/27 10:17:57;;;;;;;11.57;4.25;;;27.40;56.70;;;;;;5005144;28;20046;-78
2023/05/27 10:20:32;;;;;;;12.88;5.05;;;27.50;55.20;;;;;;5019563;28;20030;-78
2023/05/27 10:23:19;;;;;;;13.75;3.90;;;27.50;53.40;;;;;;5037685;28;20033;-78
2023/05/27 10:25:49;;;;;;;9.40;3.53;;;27.60;55.60;;;;;;5014046;28;20179;-78
2023/05/27 10:28:36;;;;;;;12.20;4.28;;;27.70;54.60;;;;;;5027954;28;20388;-78
2023/05/27 10:31:05;;;;;;;17.60;4.55;;;27.90;56.70;;;;;;4999020;28;20516;-78
2023/05/27 10:33:31;;;;;;;12.43;5.05;;;28.10;55.40;;;;;;5022653;28;20036;-78
2023/05/27 10:35:56;;;;;;;12.85;3.92;;;28.10;53.90;;;;;;5004935;28;20022;-78
2023/05/27 10:38:22;;;;;;;14.45;4.32;;;28.10;54.50;;;;;;5019953;28;20060;-78
2023/05/27 10:40:47;;;;;;;15.18;5.15;;;28.20;52.80;;;;;;5013399;28;20072;-78
2023/05/27 10:43:16;;;;;;;15.23;4.07;;;28.20;53.00;;;;;;5022606;28;20036;-78
2023/05/27 10:45:42;;;;;;;12.73;4.53;;;28.30;52.20;;;;;;5019650;28;20033;-78
2023/05/27 10:48:20;;;;;;;11.95;4.13;;;28.30;53.10;;;;;;5023142;28;20921;-78
2023/05/27 10:50:53;;;;;;;11.07;4.47;;;28.50;52.00;;;;;;5001453;28;20393;-77
2023/05/27 10:53:21;;;;;;;10.25;4.22;;;28.50;52.30;;;;;;5005737;28;20124;-78
2023/05/27 10:55:52;;;;;;;12.10;3.78;;;28.50;51.30;;;;;;4999663;28;20040;-77
2023/05/27 10:58:18;;;;;;;12.73;4.88;;;28.40;51.70;;;;;;5021201;28;20030;-78
2023/05/27 11:00:46;;;;;;;11.02;4.22;;;28.60;50.30;;;;;;5022808;28;20044;-77
2023/05/27 11:03:41;;;;;;;10.27;4.22;;;28.60;49.70;;;;;;5001272;28;20030;-77
2023/05/27 11:06:07;;;;;;;16.88;3.78;;;28.70;50.90;;;;;;5018120;28;20757;-77
2023/05/27 11:08:33;;;;;;;12.52;4.90;;;28.90;50.00;;;;;;5022230;28;20064;-77
2023/05/27 11:11:03;;;;;;;10.45;3.90;;;28.90;51.30;;;;;;5022620;28;20806;-77
2023/05/27 11:13:44;;;;;;;9.38;3.92;;;29.00;52.70;;;;;;5020361;28;20112;-76
2023/05/27 11:16:10;;;;;;;11.90;4.07;;;29.10;53.40;;;;;;5011920;28;20092;-79
2023/05/27 11:18:43;;;;;;;12.90;3.97;;;29.20;52.40;;;;;;5004658;28;20030;-79
2023/05/27 11:21:09;;;;;;;9.50;4.22;;;29.40;51.60;;;;;;5021263;28;20047;-76
2023/05/27 11:23:43;;;;;;;13.45;4.22;;;29.60;50.00;;;;;;5021256;28;20033;-76
2023/05/27 11:26:15;;;;;;;14.93;4.88;;;29.60;50.10;;;;;;5002951;28;20038;-78
2023/05/27 11:28:51;;;;;;;13.48;4.20;;;29.70;49.10;;;;;;5003570;28;20041;-77
2023/05/27 11:31:17;;;;;;;10.15;4.45;;;29.80;48.80;;;;;;5021123;28;20034;-76
2023/05/27 11:33:44;;;;;;;14.38;5.30;;;29.80;48.10;;;;;;5005425;28;20029;-76
2023/05/27 11:36:14;;;;;;;14.65;4.97;;;;;;;;;;5021872;28;20385;-76
2023/05/27 11:38:50;;;;;;;13.45;4.95;;;29.90;46.70;;;;;;5022541;28;20402;-76
2023/05/27 11:41:16;;;;;;;13.25;4.03;;;30.00;48.30;;;;;;5021563;28;20504;-76
2023/05/27 11:43:51;;;;;;;13.23;4.72;;;30.00;49.10;;;;;;5021052;28;20489;-76
2023/05/27 11:46:17;;;;;;;11.13;4.38;;;30.20;47.90;;;;;;5020920;28;20068;-76
2023/05/27 11:48:43;;;;;;;8.60;4.35;;;30.20;48.00;;;;;;5023216;28;20069;-76
2023/05/27 11:51:09;;;;;;;13.60;5.07;;;30.40;48.10;;;;;;4996549;28;20041;-77
2023/05/27 11:53:44;;;;;;;11.13;4.15;;;30.30;48.50;;;;;;5021829;28;20553;-76
2023/05/27 11:56:09;;;;;;;12.80;4.70;;;30.40;49.40;;;;;;5019594;28;20099;-76
2023/05/27 11:58:36;;;;;;;13.65;4.95;;;30.50;49.70;;;;;;5020904;28;20033;-79
2023/05/27 12:01:07;;;;;;;10.77;5.15;;;30.60;47.90;;;;;;5001456;28;20052;-76
2023/05/27 12:03:33;;;;;;;10.15;4.45;;;30.50;47.60;;;;;;5021537;28;20029;-76
2023/05/27 12:05:59;;;;;;;10.93;4.65;;;30.60;45.60;;;;;;5021016;28;20099;-76
2023/05/27 12:08:24;;;;;;;8.75;4.05;;;30.70;47.50;;;;;;5022157;28;20041;-76
2023/05/27 12:10:53;;;;;;;8.13;3.72;;;30.70;47.70;;;;;;5018293;28;20571;-77
2023/05/27 12:13:20;;;;;;;14.07;4.28;;;30.80;48.20;;;;;;5015082;28;20026;-77
2023/05/27 12:15:45;;;;;;;14.63;4.85;;;30.80;47.80;;;;;;5025206;28;20120;-77
2023/05/27 12:18:11;;;;;;;9.63;3.95;;;30.90;47.10;;;;;;5026266;28;20149;-76
2023/05/27 12:20:36;;;;;;;10.57;4.82;;;30.90;48.40;;;;;;5007951;28;20142;-76
2023/05/27 12:23:02;;;;;;;10.70;4.32;;;30.90;47.40;;;;;;5005394;28;20052;-76
2023/05/27 12:25:27;;;;;;;9.07;4.28;;;31.00;49.00;;;;;;5026402;28;20534;-76
2023/05/27 12:27:53;;;;;;;11.02;5.03;;;31.10;47.30;;;;;;5026424;28;20422;-76
2023/05/27 12:30:19;;;;;;;8.23;4.00;;;31.20;47.90;;;;;;5007941;28;20430;-77
2023/05/27 12:32:44;;;;;;;11.50;4.00;;;31.20;47.90;;;;;;5008378;28;20445;-77
2023/05/27 12:35:10;;;;;;;10.65;3.40;;;31.00;48.40;;;;;;5024560;28;20080;-77
2023/05/27 12:37:36;;;;;;;9.85;4.05;;;31.20;47.70;;;;;;5024748;28;20417;-76
2023/05/27 12:40:04;;;;;;;10.55;4.13;;;31.50;46.50;;;;;;5008201;28;20103;-76